.
WxDataArchive / Data Records for 2014-02-06
2014-02-05 February 2014 2014-02-07

Data Records for Thursday, 06 February 2014

Time	Temp	Chill	HIndex	Humid	Dewpt	 Wind 	HiWind	WindDir	Rain 	Barom 
-----	----	-----	------	-----	-----	------	------	-------	-----	----- 
00:00	16.7	16.7	16.7	76	10.5	1	4	315	0.00	30.409 
00:05	16.7	16.7	16.7	76	10.5	1	4	315	0.00	30.409 
00:10	16.5	16.5	16.5	76	10.3	1	5	315	0.00	30.409 
00:15	16.4	16.4	16.4	75	9.9	2	4	270	0.00	30.407 
00:20	16.2	16.2	16.2	75	9.7	1	4	292	0.00	30.407 
00:25	16.2	16.2	16.2	75	9.7	1	4	0	0.00	30.407 
00:30	16.1	16.1	16.1	75	9.6	1	5	315	0.00	30.408 
00:35	16.1	16.1	16.1	75	9.6	1	4	270	0.00	30.408 
00:40	15.9	15.9	15.9	75	9.4	1	3	315	0.00	30.408 
00:45	15.9	15.9	15.9	75	9.4	1	3	292	0.00	30.405 
00:50	15.9	15.9	15.9	75	9.4	0	3	292	0.00	30.405 
00:55	15.7	15.7	15.7	75	9.2	1	3	292	0.00	30.405 
01:00	15.7	15.7	15.7	75	9.2	0	3	292	0.00	30.409 
01:05	15.7	15.7	15.7	75	9.2	0	2	292	0.00	30.409 
01:10	15.7	15.7	15.7	75	9.2	1	3	292	0.00	30.409 
01:15	15.7	15.7	15.7	74	8.9	0	2	292	0.00	30.404 
01:20	15.6	15.6	15.6	74	8.8	1	3	270	0.00	30.404 
01:25	15.6	15.6	15.6	74	8.8	0	1	270	0.00	30.404 
01:30	15.4	15.4	15.4	74	8.6	1	3	270	0.00	30.407 
01:35	15.4	15.4	15.4	74	8.6	0	2	270	0.00	30.407 
01:40	15.4	15.4	15.4	73	8.3	0	3	292	0.00	30.407 
01:45	15.2	15.2	15.2	73	8.1	0	2	292	0.00	30.409 
01:50	15.2	15.2	15.2	73	8.1	0	1	292	0.00	30.409 
01:55	15.2	15.2	15.2	73	8.1	0	1	292	0.00	30.409 
02:00	15.1	15.1	15.1	73	8.0	0	4	292	0.00	30.410 
02:05	15.1	15.1	15.1	74	8.3	0	3	292	0.00	30.410 
02:10	14.9	14.9	14.9	73	7.8	0	1	292	0.00	30.410 
02:15	14.9	14.9	14.9	74	8.1	0	2	292	0.00	30.410 
02:20	14.8	14.8	14.8	74	8.0	0	1	292	0.00	30.410 
02:25	14.6	14.6	14.6	74	7.8	0	0	---	0.00	30.410 
02:30	14.6	14.6	14.6	74	7.8	0	0	---	0.00	30.409 
02:35	14.4	14.4	14.4	74	7.7	0	0	---	0.00	30.409 
02:40	14.3	14.3	14.3	75	7.9	0	0	---	0.00	30.409 
02:45	14.1	14.1	14.1	75	7.7	0	0	---	0.00	30.405 
02:50	14.0	14.0	14.0	75	7.6	0	0	---	0.00	30.405 
02:55	13.6	13.6	13.6	75	7.2	0	0	---	0.00	30.405 
03:00	13.3	13.3	13.3	75	6.9	0	0	---	0.00	30.402 
03:05	12.9	12.9	12.9	76	6.8	0	0	---	0.00	30.402 
03:10	12.6	12.6	12.6	75	6.2	0	0	---	0.00	30.402 
03:15	12.3	12.3	12.3	76	6.2	0	0	---	0.00	30.400 
03:20	11.9	11.9	11.9	77	6.1	0	0	---	0.00	30.400 
03:25	11.7	11.7	11.7	77	5.9	0	0	---	0.00	30.400 
03:30	11.4	11.4	11.4	77	5.6	0	0	---	0.00	30.399 
03:35	11.4	11.4	11.4	78	5.9	0	0	---	0.00	30.399 
03:40	11.2	11.2	11.2	78	5.7	0	0	---	0.00	30.399 
03:45	11.1	11.1	11.1	78	5.6	0	0	---	0.00	30.400 
03:50	10.9	10.9	10.9	79	5.7	0	0	---	0.00	30.400 
03:55	10.7	10.7	10.7	79	5.5	0	0	---	0.00	30.400 
04:00	10.7	10.7	10.7	79	5.5	0	0	---	0.00	30.403 
04:05	10.7	10.7	10.7	80	5.8	0	0	---	0.00	30.403 
04:10	10.7	10.7	10.7	81	6.0	0	0	---	0.00	30.403 
04:15	11.1	11.1	11.1	81	6.4	0	0	---	0.00	30.402 
04:20	11.4	11.4	11.4	81	6.7	0	0	---	0.00	30.402 
04:25	11.7	11.7	11.7	81	7.0	0	0	---	0.00	30.402 
04:30	11.9	11.9	11.9	81	7.2	0	0	---	0.00	30.402 
04:35	12.1	12.1	12.1	82	7.7	0	0	---	0.00	30.402 
04:40	12.3	12.3	12.3	82	7.9	0	0	---	0.00	30.402 
04:45	12.4	12.4	12.4	82	8.0	0	0	---	0.00	30.402 
04:50	12.6	12.6	12.6	82	8.2	0	0	---	0.00	30.402 
04:55	12.8	12.8	12.8	82	8.4	0	0	---	0.00	30.402 
05:00	12.9	12.9	12.9	82	8.5	0	0	---	0.00	30.402 
05:05	12.9	12.9	12.9	82	8.5	0	0	---	0.00	30.402 
05:10	12.9	12.9	12.9	82	8.5	0	0	---	0.00	30.402 
05:15	12.9	12.9	12.9	82	8.5	0	0	---	0.00	30.400 
05:20	12.8	12.8	12.8	82	8.4	0	0	---	0.00	30.400 
05:25	12.6	12.6	12.6	82	8.2	0	0	---	0.00	30.400 
05:30	12.4	12.4	12.4	82	8.0	0	0	---	0.00	30.404 
05:35	12.4	12.4	12.4	82	8.0	0	0	---	0.00	30.404 
05:40	12.3	12.3	12.3	82	7.9	0	0	---	0.00	30.404 
05:45	12.1	12.1	12.1	82	7.7	0	0	---	0.00	30.400 
05:50	11.9	11.9	11.9	82	7.5	0	0	---	0.00	30.400 
05:55	11.6	11.6	11.6	82	7.2	0	0	---	0.00	30.400 
06:00	11.2	11.2	11.2	82	6.8	0	0	---	0.00	30.402 
06:05	10.9	10.9	10.9	82	6.5	0	0	---	0.00	30.402 
06:10	10.7	10.7	10.7	82	6.3	0	0	---	0.00	30.402 
06:15	10.5	10.5	10.5	82	6.1	0	0	---	0.00	30.407 
06:20	10.5	10.5	10.5	83	6.4	0	1	292	0.00	30.407 
06:25	10.5	10.5	10.5	83	6.4	0	0	---	0.00	30.407 
06:30	10.5	10.5	10.5	83	6.4	0	0	---	0.00	30.413 
06:35	10.7	10.7	10.7	83	6.6	0	0	---	0.00	30.413 
06:40	10.9	10.9	10.9	83	6.8	0	0	---	0.00	30.413 
06:45	10.9	10.9	10.9	84	7.0	0	0	---	0.00	30.413 
06:50	11.1	11.1	11.1	84	7.2	0	0	---	0.00	30.413 
06:55	11.4	11.4	11.4	84	7.5	0	0	---	0.00	30.413 
07:00	11.9	11.9	11.9	85	8.3	0	0	---	0.00	30.415 
07:05	12.4	12.4	12.4	85	8.8	0	1	292	0.00	30.415 
07:10	13.1	13.1	13.1	86	9.7	0	1	292	0.00	30.415 
07:15	13.6	13.6	13.6	86	10.2	0	1	292	0.00	30.411 
07:20	14.0	14.0	14.0	86	10.6	0	1	292	0.00	30.411 
07:25	14.1	14.1	14.1	86	10.7	0	1	292	0.00	30.411 
07:30	14.3	14.3	14.3	85	10.6	0	1	292	0.00	30.412 
07:35	14.3	14.3	14.3	85	10.6	0	1	292	0.00	30.412 
07:40	14.3	14.3	14.3	85	10.6	0	1	292	0.00	30.412 
07:45	14.1	14.1	14.1	84	10.2	0	1	292	0.00	30.412 
07:50	13.8	13.8	13.8	84	9.9	0	0	---	0.00	30.412 
07:55	13.5	13.5	13.5	84	9.6	0	0	---	0.00	30.412 
08:00	13.1	13.1	13.1	84	9.2	0	0	---	0.00	30.409 
08:05	12.8	12.8	12.8	83	8.6	0	0	---	0.00	30.409 
08:10	12.4	12.4	12.4	83	8.2	0	0	---	0.00	30.409 
08:15	12.1	12.1	12.1	83	7.9	0	0	---	0.00	30.410 
08:20	11.9	11.9	11.9	83	7.8	0	1	292	0.00	30.410 
08:25	11.9	11.9	11.9	83	7.8	0	0	---	0.00	30.410 
08:30	12.1	12.1	12.1	84	8.2	0	0	---	0.00	30.414 
08:35	12.3	12.3	12.3	84	8.4	0	0	---	0.00	30.414 
08:40	12.6	12.6	12.6	84	8.7	0	1	292	0.00	30.414 
08:45	12.9	12.9	12.9	83	8.7	0	1	292	0.00	30.414 
08:50	13.5	13.5	13.5	82	9.0	0	1	292	0.00	30.414 
08:55	13.8	13.8	13.8	82	9.3	0	1	292	0.00	30.414 
09:00	14.1	14.1	14.1	81	9.4	0	1	292	0.00	30.416 
09:05	14.6	14.6	14.6	80	9.6	0	1	292	0.00	30.416 
09:10	14.8	14.8	14.8	79	9.5	0	2	292	0.00	30.416 
09:15	15.1	15.1	15.1	79	9.8	0	1	270	0.00	30.420 
09:20	15.1	15.1	15.1	78	9.5	0	2	270	0.00	30.420 
09:25	14.9	14.9	14.9	77	9.0	1	2	270	0.00	30.420 
09:30	14.9	14.9	14.9	76	8.7	0	2	270	0.00	30.425 
09:35	14.9	14.9	14.9	75	8.4	1	4	270	0.00	30.425 
09:40	14.9	14.9	14.9	74	8.1	1	3	270	0.00	30.425 
09:45	14.8	14.8	14.8	74	8.0	1	3	270	0.00	30.431 
09:50	14.8	14.8	14.8	74	8.0	1	4	248	0.00	30.431 
09:55	14.6	14.6	14.6	74	7.8	1	4	248	0.00	30.431 
10:00	14.1	14.1	14.1	73	7.1	2	4	270	0.00	30.436 
10:05	13.8	13.8	13.8	74	7.1	2	5	270	0.00	30.436 
10:10	13.3	13.3	13.3	73	6.3	2	5	270	0.00	30.436 
10:15	13.1	13.1	13.1	74	6.4	1	2	270	0.00	30.438 
10:20	13.5	13.5	13.5	75	7.1	0	2	270	0.00	30.438 
10:25	13.5	13.5	13.5	74	6.8	1	4	248	0.00	30.438 
10:30	13.6	13.6	13.6	74	6.9	1	5	248	0.00	30.438 
10:35	14.0	14.0	14.0	74	7.3	1	3	248	0.00	30.438 
10:40	14.1	14.1	14.1	74	7.4	2	6	248	0.00	30.438 
10:45	14.0	14.0	14.0	74	7.3	2	6	248	0.00	30.445 
10:50	14.0	14.0	14.0	74	7.3	1	3	248	0.00	30.445 
10:55	13.8	13.8	13.8	74	7.1	2	6	270	0.00	30.445 
11:00	13.5	13.5	13.5	75	7.1	2	5	270	0.00	30.447 
11:05	13.1	13.1	13.1	75	6.7	3	5	292	0.00	30.447 
11:10	13.3	13.3	13.3	75	6.9	1	3	270	0.00	30.447 
11:15	13.6	13.6	13.6	76	7.5	1	4	270	0.00	30.449 
11:20	14.0	14.0	14.0	75	7.6	2	6	270	0.00	30.449 
11:25	14.1	14.1	14.1	74	7.4	3	7	248	0.00	30.449 
11:30	14.1	14.1	14.1	73	7.1	2	5	248	0.00	30.448 
11:35	14.1	14.1	14.1	73	7.1	2	5	248	0.00	30.448 
11:40	14.3	14.3	14.3	73	7.3	2	4	248	0.00	30.448 
11:45	14.6	14.6	14.6	73	7.5	1	3	248	0.00	30.445 
11:50	14.6	14.6	14.6	73	7.5	2	4	270	0.00	30.445 
11:55	14.3	14.3	14.3	73	7.3	2	6	270	0.00	30.445 
12:00	13.8	13.8	13.8	73	6.8	3	6	292	0.00	30.450 
12:05	13.3	13.3	13.3	73	6.3	2	5	248	0.00	30.450 
12:10	13.3	13.3	13.3	73	6.3	1	3	248	0.00	30.450 
12:15	13.1	13.1	13.1	73	6.1	2	4	248	0.00	30.444 
12:20	13.3	13.3	13.3	73	6.3	1	3	248	0.00	30.444 
12:25	13.5	13.5	13.5	72	6.2	2	5	248	0.00	30.444 
12:30	13.3	13.3	13.3	69	5.1	2	5	292	0.00	30.425 
12:35	13.3	13.3	13.3	70	5.4	1	3	292	0.00	30.425 
12:40	13.3	13.3	13.3	70	5.4	2	4	248	0.00	30.425 
12:45	13.5	13.5	13.5	70	5.6	1	4	248	0.00	30.420 
12:50	14.0	14.0	14.0	70	6.0	1	4	248	0.00	30.420 
12:55	13.8	13.8	13.8	68	5.2	2	11	248	0.00	30.420 
13:00	13.6	13.6	13.6	69	5.4	2	4	248	0.00	30.411 
13:05	13.8	13.8	13.8	69	5.5	1	4	248	0.00	30.411 
13:10	14.0	14.0	14.0	68	5.4	1	4	248	0.00	30.411 
13:15	13.8	13.8	13.8	67	4.9	2	6	248	0.00	30.407 
13:20	13.6	13.6	13.6	67	4.7	2	7	248	0.00	30.407 
13:25	13.3	13.3	13.3	66	4.1	3	7	270	0.00	30.407 
13:30	12.4	12.4	12.4	65	2.9	3	6	248	0.00	30.407 
13:35	11.9	11.9	11.9	66	2.8	3	10	248	0.00	30.407 
13:40	11.9	11.9	11.9	66	2.8	2	5	270	0.00	30.407 
13:45	11.6	11.6	11.6	65	2.1	3	7	270	0.00	30.407 
13:50	11.2	4.0	11.2	64	1.4	4	11	248	0.00	30.407 
13:55	11.1	11.1	11.1	64	1.3	2	6	270	0.00	30.407 
14:00	10.7	10.7	10.7	64	1.0	3	6	270	0.00	30.409 
14:05	10.7	10.7	10.7	64	1.0	3	5	270	0.00	30.409 
14:10	10.5	10.5	10.5	63	0.4	3	7	248	0.00	30.409 
14:15	10.5	10.5	10.5	63	0.4	2	5	270	0.00	30.408 
14:20	10.5	10.5	10.5	64	0.8	2	6	270	0.00	30.408 
14:25	10.4	10.4	10.4	62	-0.0	2	5	270	0.00	30.408 
14:30	9.9	9.9	9.9	61	-0.8	3	6	270	0.00	30.411 
14:35	9.7	9.7	9.7	60	-1.4	3	7	248	0.00	30.411 
14:40	9.2	1.7	9.2	59	-2.2	4	10	270	0.00	30.411 
14:45	8.8	1.3	8.8	59	-2.6	4	7	270	0.00	30.412 
14:50	8.8	8.8	8.8	59	-2.6	3	6	270	0.00	30.412 
14:55	8.8	8.8	8.8	60	-2.2	3	9	248	0.00	30.412 
15:00	8.8	8.8	8.8	60	-2.2	3	9	248	0.00	30.411 
15:05	8.8	8.8	8.8	59	-2.6	3	10	248	0.00	30.411 
15:10	8.8	8.8	8.8	60	-2.2	2	5	270	0.00	30.411 
15:15	8.8	8.8	8.8	60	-2.2	2	4	270	0.00	30.408 
15:20	9.2	9.2	9.2	60	-1.8	2	9	248	0.00	30.408 
15:25	9.0	9.0	9.0	59	-2.4	2	6	248	0.00	30.408 
15:30	8.8	8.8	8.8	60	-2.2	2	6	248	0.00	30.408 
15:35	8.8	8.8	8.8	60	-2.2	2	5	248	0.00	30.408 
15:40	8.6	8.6	8.6	59	-2.8	2	5	270	0.00	30.408 
15:45	8.3	8.3	8.3	59	-3.0	2	4	248	0.00	30.406 
15:50	7.9	7.9	7.9	59	-3.4	3	5	270	0.00	30.406 
15:55	7.6	7.6	7.6	60	-3.3	3	5	270	0.00	30.406 
16:00	7.6	7.6	7.6	60	-3.3	2	5	270	0.00	30.407 
16:05	7.2	7.2	7.2	59	-4.1	2	6	270	0.00	30.407 
16:10	6.9	6.9	6.9	60	-4.0	3	6	270	0.00	30.407 
16:15	6.9	6.9	6.9	61	-3.7	1	4	270	0.00	30.405 
16:20	7.0	7.0	7.0	61	-3.6	1	3	292	0.00	30.405 
16:25	7.0	7.0	7.0	60	-3.9	1	6	270	0.00	30.405 
16:30	6.7	6.7	6.7	60	-4.2	3	6	270	0.00	30.403 
16:35	6.5	6.5	6.5	60	-4.4	2	5	248	0.00	30.403 
16:40	6.3	6.3	6.3	60	-4.6	2	4	248	0.00	30.403 
16:45	6.1	6.1	6.1	60	-4.8	2	6	248	0.00	30.406 
16:50	6.1	6.1	6.1	61	-4.4	1	3	248	0.00	30.406 
16:55	6.0	6.0	6.0	61	-4.5	2	7	248	0.00	30.406 
17:00	5.8	5.8	5.8	61	-4.7	1	4	270	0.00	30.407 
17:05	5.6	5.6	5.6	61	-4.9	1	5	225	0.00	30.407 
17:10	5.4	5.4	5.4	61	-5.1	1	3	225	0.00	30.407 
17:15	5.0	5.0	5.0	61	-5.5	2	5	248	0.00	30.407 
17:20	4.7	4.7	4.7	61	-5.8	2	6	248	0.00	30.407 
17:25	4.5	4.5	4.5	61	-5.9	2	5	248	0.00	30.407 
17:30	4.3	4.3	4.3	62	-5.8	1	4	248	0.00	30.416 
17:35	4.1	4.1	4.1	62	-6.0	1	4	248	0.00	30.416 
17:40	3.9	3.9	3.9	62	-6.2	2	4	248	0.00	30.416 
17:45	3.5	3.5	3.5	62	-6.6	1	6	248	0.00	30.417 
17:50	3.4	3.4	3.4	62	-6.7	1	5	248	0.00	30.417 
17:55	3.2	3.2	3.2	63	-6.5	1	2	248	0.00	30.417 
18:00	3.0	3.0	3.0	63	-6.7	1	4	248	0.00	30.420 
18:05	2.8	2.8	2.8	63	-6.9	2	6	248	0.00	30.420 
18:10	2.6	2.6	2.6	63	-7.1	2	5	270	0.00	30.420 
18:15	2.4	2.4	2.4	63	-7.3	1	4	270	0.00	30.419 
18:20	2.4	2.4	2.4	63	-7.3	1	5	248	0.00	30.419 
18:25	2.2	2.2	2.2	64	-7.1	1	4	248	0.00	30.419 
18:30	2.0	2.0	2.0	64	-7.3	1	5	248	0.00	30.418 
18:35	2.0	2.0	2.0	64	-7.3	1	2	248	0.00	30.418 
18:40	1.8	1.8	1.8	64	-7.5	0	3	225	0.00	30.418 
18:45	1.8	1.8	1.8	64	-7.5	1	5	248	0.00	30.421 
18:50	1.7	1.7	1.7	64	-7.6	1	4	248	0.00	30.421 
18:55	1.7	1.7	1.7	64	-7.6	1	5	248	0.00	30.421 
19:00	1.5	1.5	1.5	64	-7.8	1	3	248	0.00	30.421 
19:05	1.5	1.5	1.5	65	-7.5	1	2	248	0.00	30.421 
19:10	1.5	1.5	1.5	65	-7.5	2	5	248	0.00	30.421 
19:15	1.3	1.3	1.3	65	-7.7	1	3	248	0.00	30.428 
19:20	1.3	1.3	1.3	65	-7.7	1	4	248	0.00	30.428 
19:25	1.3	1.3	1.3	65	-7.7	2	5	225	0.00	30.428 
19:30	1.1	1.1	1.1	65	-7.9	2	6	248	0.00	30.434 
19:35	1.1	1.1	1.1	65	-7.9	1	4	248	0.00	30.434 
19:40	1.1	1.1	1.1	65	-7.9	2	5	248	0.00	30.434 
19:45	1.1	1.1	1.1	65	-7.9	1	3	248	0.00	30.436 
19:50	0.9	0.9	0.9	65	-8.1	2	6	248	0.00	30.436 
19:55	0.9	0.9	0.9	65	-8.1	1	3	225	0.00	30.436 
20:00	0.7	0.7	0.7	65	-8.3	1	3	248	0.00	30.437 
20:05	0.5	0.5	0.5	65	-8.5	1	3	248	0.00	30.437 
20:10	0.3	0.3	0.3	66	-8.3	1	4	248	0.00	30.437 
20:15	0.3	0.3	0.3	66	-8.3	1	4	248	0.00	30.438 
20:20	0.1	0.1	0.1	66	-8.5	1	3	248	0.00	30.438 
20:25	0.0	0.0	0.0	66	-8.6	1	3	248	0.00	30.438 
20:30	0.0	0.0	0.0	67	-8.3	1	3	248	0.00	30.438 
20:35	-0.2	-0.2	-0.2	67	-8.5	1	4	248	0.00	30.438 
20:40	-0.2	-0.2	-0.2	67	-8.5	2	5	248	0.00	30.438 
20:45	-0.2	-0.2	-0.2	67	-8.5	2	6	248	0.00	30.446 
20:50	-0.4	-0.4	-0.4	67	-8.7	1	4	248	0.00	30.446 
20:55	-0.4	-0.4	-0.4	67	-8.7	1	3	248	0.00	30.446 
21:00	-0.6	-0.6	-0.6	67	-8.9	1	4	248	0.00	30.453 
21:05	-0.6	-0.6	-0.6	67	-8.9	1	3	248	0.00	30.453 
21:10	-0.8	-0.8	-0.8	67	-9.1	1	2	248	0.00	30.453 
21:15	-0.8	-0.8	-0.8	67	-9.1	1	2	248	0.00	30.453 
21:20	-1.0	-1.0	-1.0	67	-9.3	1	5	270	0.00	30.453 
21:25	-1.0	-1.0	-1.0	67	-9.3	1	4	248	0.00	30.453 
21:30	-1.2	-1.2	-1.2	67	-9.5	1	6	248	0.00	30.454 
21:35	-1.2	-1.2	-1.2	67	-9.5	1	3	248	0.00	30.454 
21:40	-1.4	-1.4	-1.4	67	-9.7	1	3	270	0.00	30.454 
21:45	-1.4	-1.4	-1.4	67	-9.7	1	3	270	0.00	30.454 
21:50	-1.6	-1.6	-1.6	67	-9.8	1	3	270	0.00	30.454 
21:55	-1.6	-1.6	-1.6	67	-9.8	1	3	270	0.00	30.454 
22:00	-1.8	-1.8	-1.8	67	-10.0	1	3	270	0.00	30.453 
22:05	-1.8	-1.8	-1.8	67	-10.0	1	4	270	0.00	30.453 
22:10	-1.8	-1.8	-1.8	67	-10.0	1	3	248	0.00	30.453 
22:15	-2.0	-2.0	-2.0	67	-10.2	1	2	248	0.00	30.449 
22:20	-2.2	-2.2	-2.2	67	-10.4	1	3	248	0.00	30.449 
22:25	-2.2	-2.2	-2.2	67	-10.4	1	4	248	0.00	30.449 
22:30	-2.4	-2.4	-2.4	67	-10.6	1	3	248	0.00	30.451 
22:35	-2.4	-2.4	-2.4	67	-10.6	1	3	248	0.00	30.451 
22:40	-2.4	-2.4	-2.4	68	-10.3	1	2	248	0.00	30.451 
22:45	-2.6	-2.6	-2.6	67	-10.8	1	3	248	0.00	30.448 
22:50	-2.6	-2.6	-2.6	67	-10.8	1	2	248	0.00	30.448 
22:55	-2.6	-2.6	-2.6	68	-10.5	1	4	248	0.00	30.448 
23:00	-2.6	-2.6	-2.6	68	-10.5	1	2	248	0.00	30.444 
23:05	-2.8	-2.8	-2.8	68	-10.7	1	3	248	0.00	30.444 
23:10	-2.8	-2.8	-2.8	68	-10.7	1	4	248	0.00	30.444 
23:15	-2.8	-2.8	-2.8	67	-11.0	1	2	248	0.00	30.442 
23:20	-2.8	-2.8	-2.8	68	-10.7	1	3	248	0.00	30.442 
23:25	-2.8	-2.8	-2.8	67	-11.0	0	3	248	0.00	30.442 
23:30	-3.1	-3.1	-3.1	67	-11.3	1	2	248	0.00	30.442 
23:35	-3.1	-3.1	-3.1	67	-11.3	0	3	248	0.00	30.442 
23:40	-3.1	-3.1	-3.1	68	-11.0	1	3	248	0.00	30.442 
23:45	-3.3	-3.3	-3.3	68	-11.2	1	2	248	0.00	30.444 
23:50	-3.3	-3.3	-3.3	68	-11.2	0	2	248	0.00	30.444 
23:55	-3.3	-3.3	-3.3	67	-11.5	0	2	248	0.00	30.444 

CoCoRaHS
IN-AL-39
A2 Web Hosting
Creative Commons License
GoDaddy
search engine by freefind advanced

loaded 2018-11-18 11:23:56 • last modified 2010-11-18 10:43:29
Privacy PolicyDisclaimer
• wx.awcolley.com is powered by PmWiki v.2002016 •
• all content (unless otherwise noted) © 2018 A W Colley